1862 Hurricane NOT_NAMED (1862247N15326)


IBTrACS version v04r00. Visit IBTrACS website for data access.
Please direct all questions to the IBTrACS Q and A forum

Storm track - Intensity - Wind Radii - Intensity Data - Source Data - All data

Summary Information

Storm ID 1862247N15326
Start Sep 3 12Z
Max Intensity 65 kt (Sep 9 06Z)
End Sep 12 12Z
ATCF IDs
Track status Best track data.

Storm track plot

Map of storm track

Intensity plots

Map of storm track

Radial wind information

No radial wind information for this storm


Position and Intensity Table

BASIN ISO_TIME_________ NATURE LAT LON MLC WIND
degrees north degrees east kts
NA 1862-09-03 12:00:00 TS 15.00 -34.50 30
NA 15:00:00 TS 15.20 -35.11 30
NA 18:00:00 TS 15.40 -35.70 30
NA 21:00:00 TS 15.60 -36.26 30
NA 1862-09-04 00:00:00 TS 15.80 -36.80 30
NA 03:00:00 TS 16.01 -37.35 30
NA 06:00:00 TS 16.20 -37.90 30
NA 09:00:00 TS 16.32 -38.46 32
NA 12:00:00 TS 16.50 -39.00 35
NA 15:00:00 TS 16.87 -39.51 35
NA 18:00:00 TS 17.30 -40.00 35
NA 21:00:00 TS 17.65 -40.46 35
NA 1862-09-05 00:00:00 TS 18.00 -40.90 35
NA 03:00:00 TS 18.40 -41.34 35
NA 06:00:00 TS 18.80 -41.80 35
NA 09:00:00 TS 19.13 -42.35 37
NA 12:00:00 TS 19.50 -42.80 40
NA 15:00:00 TS 20.02 -43.00 40
NA 18:00:00 TS 20.60 -43.10 40
NA 21:00:00 TS 21.15 -43.25 40
NA 1862-09-06 00:00:00 TS 21.70 -43.40 40
NA 03:00:00 TS 22.26 -43.55 40
NA 06:00:00 TS 22.80 -43.70 40
NA 09:00:00 TS 23.30 -43.89 42
NA 12:00:00 TS 23.80 -44.00 45
NA 15:00:00 TS 24.35 -43.89 45
NA 18:00:00 TS 24.90 -43.70 45
NA 21:00:00 TS 25.40 -43.61 45
NA 1862-09-07 00:00:00 TS 25.90 -43.50 45
NA 03:00:00 TS 26.45 -43.27 45
NA 06:00:00 TS 27.00 -43.00 45
NA 09:00:00 TS 27.50 -42.76 45
NA 12:00:00 TS 28.00 -42.50 45
NA 15:00:00 TS 28.54 -42.21 45
NA 18:00:00 TS 29.10 -41.90 45
NA 21:00:00 TS 29.65 -41.59 47
NA 1862-09-08 00:00:00 TS 30.20 -41.30 50
NA 03:00:00 TS 30.76 -41.05 50
NA 06:00:00 TS 31.30 -40.80 50
NA 09:00:00 TS 31.79 -40.51 52
NA 12:00:00 TS 32.30 -40.20 55
NA 15:00:00 TS 32.88 -39.90 57
NA 18:00:00 TS 33.50 -39.60 60
NA 21:00:00 TS 34.10 -39.27 60
NA 1862-09-09 00:00:00 TS 34.70 -39.00 60
NA 03:00:00 TS 35.31 -38.86 62
NA 06:00:00 TS 35.90 -38.80 65
NA 09:00:00 TS 36.49 -38.73 65
NA 12:00:00 TS 37.00 -38.70 65
NA 15:00:00 TS 37.38 -38.67 65
NA 18:00:00 TS 37.70 -38.70 65
NA 21:00:00 TS 38.05 -38.77 65
NA 1862-09-10 00:00:00 TS 38.40 -39.00 65
NA 03:00:00 TS 38.75 -39.49 65
NA 06:00:00 TS 39.10 -40.10 65
NA 09:00:00 TS 39.44 -40.78 65
NA 12:00:00 TS 39.80 -41.20 65
NA 15:00:00 TS 40.23 -41.03 65
NA 18:00:00 TS 40.70 -40.60 65
NA 21:00:00 TS 41.20 -40.31 62
NA 1862-09-11 00:00:00 TS 41.70 -40.00 60
NA 03:00:00 TS 42.16 -39.70 57
NA 06:00:00 TS 42.60 -39.20 55
NA 09:00:00 TS 42.99 -38.38 52
NA 12:00:00 TS 43.50 -37.30 50
NA 15:00:00 TS 44.30 -36.05 47
NA 18:00:00 TS 45.20 -34.70 45
NA 21:00:00 TS 46.01 -33.40 45
NA 1862-09-12 00:00:00 ET 46.80 -32.10 45
NA 03:00:00 ET 47.60 -30.84 42
NA 06:00:00 ET 48.40 -29.50 40
NA 09:00:00 ET 49.21 -27.97 37
NA 12:00:00 ET 50.00 -26.30 35

Source Information

Agency Information
USA
TOKYO
CMA
HKO
NEWDELHI
REUNION
BOM
NADI
WELLINGTON
DS824
TD9636
TD9635
NEUMANN
MLC

All available IBTrACS Data

SEASON BASIN SUBBASIN ISO_TIME_________ NATURE LAT LON DIST2LAND LANDFALL IFLAG USA SSHS MLC LAT MLC LON MLC CLASS MLC WIND STORM SPEED STORM DIR
Year degrees north degrees east km km 1 degrees north degrees east kts kts degrees
1862 NA NA 1862-09-03 12:00:00 TS 15.00 -34.50 1827 1827 _____________O -1 15.00 -34.50 TD 30 12 289
1862 NA NA 15:00:00 TS 15.20 -35.11 1891 1891 _____________P -1 15.20 -35.11 TD 30 12 289
1862 NA NA 18:00:00 TS 15.40 -35.70 1956 1956 _____________O -1 15.40 -35.70 TD 30 12 290
1862 NA NA 21:00:00 TS 15.60 -36.26 2020 2020 _____________P -1 15.60 -36.26 TD 30 11 291
1862 NA NA 1862-09-04 00:00:00 TS 15.80 -36.80 2042 2014 _____________O -1 15.80 -36.80 TD 30 11 291
1862 NA NA 03:00:00 TS 16.01 -37.35 2006 1980 _____________P -1 16.01 -37.35 TD 30 11 291
1862 NA NA 06:00:00 TS 16.20 -37.90 1980 1947 _____________O -1 16.20 -37.90 TD 30 11 286
1862 NA NA 09:00:00 TS 16.32 -38.46 1939 1916 _____________P -1 16.32 -38.46 TD 32 11 286
1862 NA NA 12:00:00 TS 16.50 -39.00 1916 1902 _____________O -1 16.50 -39.00 TS 35 12 298
1862 NA NA 15:00:00 TS 16.87 -39.51 1910 1903 _____________P -1 16.87 -39.51 TS 35 13 310
1862 NA NA 18:00:00 TS 17.30 -40.00 1907 1900 _____________O -1 17.30 -40.00 TS 35 12 311
1862 NA NA 21:00:00 TS 17.65 -40.46 1898 1898 _____________P -1 17.65 -40.46 TS 35 11 309
1862 NA NA 1862-09-05 00:00:00 TS 18.00 -40.90 1906 1905 _____________O -1 18.00 -40.90 TS 35 11 312
1862 NA NA 03:00:00 TS 18.40 -41.34 1917 1911 _____________P -1 18.40 -41.34 TS 35 12 313
1862 NA NA 06:00:00 TS 18.80 -41.80 1921 1913 _____________O -1 18.80 -41.80 TS 35 12 308
1862 NA NA 09:00:00 TS 19.13 -42.35 1915 1909 _____________P -1 19.13 -42.35 TS 37 12 307
1862 NA NA 12:00:00 TS 19.50 -42.80 1921 1921 _____________O -1 19.50 -42.80 TS 40 11 325
1862 NA NA 15:00:00 TS 20.02 -43.00 1955 1955 _____________P -1 20.02 -43.00 TS 40 11 346
1862 NA NA 18:00:00 TS 20.60 -43.10 2006 2006 _____________O -1 20.60 -43.10 TS 40 12 348
1862 NA NA 21:00:00 TS 21.15 -43.25 2043 2043 _____________P -1 21.15 -43.25 TS 40 11 346
1862 NA NA 1862-09-06 00:00:00 TS 21.70 -43.40 2096 2096 _____________O -1 21.70 -43.40 TS 40 11 346
1862 NA NA 03:00:00 TS 22.26 -43.55 2144 2144 _____________P -1 22.26 -43.55 TS 40 11 346
1862 NA NA 06:00:00 TS 22.80 -43.70 2189 2189 _____________O -1 22.80 -43.70 TS 40 11 343
1862 NA NA 09:00:00 TS 23.30 -43.89 2229 2229 _____________P -1 23.30 -43.89 TS 42 10 344
1862 NA NA 12:00:00 TS 23.80 -44.00 2275 2275 _____________O -1 23.80 -44.00 TS 45 11 0
1862 NA NA 15:00:00 TS 24.35 -43.89 2339 2339 _____________P -1 24.35 -43.89 TS 45 11 14
1862 NA NA 18:00:00 TS 24.90 -43.70 2373 2373 _____________O -1 24.90 -43.70 TS 45 11 13
1862 NA NA 21:00:00 TS 25.40 -43.61 2396 2396 _____________P -1 25.40 -43.61 TS 45 10 10
1862 NA NA 1862-09-07 00:00:00 TS 25.90 -43.50 2420 2412 _____________O -1 25.90 -43.50 TS 45 11 16
1862 NA NA 03:00:00 TS 26.45 -43.27 2401 2358 _____________P -1 26.45 -43.27 TS 45 12 22
1862 NA NA 06:00:00 TS 27.00 -43.00 2358 2313 _____________O -1 27.00 -43.00 TS 45 12 24
1862 NA NA 09:00:00 TS 27.50 -42.76 2313 2271 _____________P -1 27.50 -42.76 TS 45 11 24
1862 NA NA 12:00:00 TS 28.00 -42.50 2271 2226 _____________O -1 28.00 -42.50 TS 45 12 25
1862 NA NA 15:00:00 TS 28.54 -42.21 2230 2180 _____________P -1 28.54 -42.21 TS 45 12 26
1862 NA NA 18:00:00 TS 29.10 -41.90 2180 2141 _____________O -1 29.10 -41.90 TS 45 12 26
1862 NA NA 21:00:00 TS 29.65 -41.59 2141 2093 _____________P -1 29.65 -41.59 TS 47 12 25
1862 NA NA 1862-09-08 00:00:00 TS 30.20 -41.30 2093 2051 _____________O -1 30.20 -41.30 TS 50 12 23
1862 NA NA 03:00:00 TS 30.76 -41.05 2046 2005 _____________P -1 30.76 -41.05 TS 50 12 21
1862 NA NA 06:00:00 TS 31.30 -40.80 2005 1970 _____________O -1 31.30 -40.80 TS 50 11 24
1862 NA NA 09:00:00 TS 31.79 -40.51 1970 1936 _____________P -1 31.79 -40.51 TS 52 11 27
1862 NA NA 12:00:00 TS 32.30 -40.20 1936 1894 _____________O -1 32.30 -40.20 TS 55 12 25
1862 NA NA 15:00:00 TS 32.88 -39.90 1894 1853 _____________P -1 32.88 -39.90 TS 57 13 23
1862 NA NA 18:00:00 TS 33.50 -39.60 1853 1814 _____________O -1 33.50 -39.60 TS 60 13 23
1862 NA NA 21:00:00 TS 34.10 -39.27 1814 1777 _____________P -1 34.10 -39.27 TS 60 13 23
1862 NA NA 1862-09-09 00:00:00 TS 34.70 -39.00 1777 1730 _____________O -1 34.70 -39.00 TS 60 13 16
1862 NA NA 03:00:00 TS 35.31 -38.86 1730 1685 _____________P -1 35.31 -38.86 TS 62 12 8
1862 NA NA 06:00:00 TS 35.90 -38.80 1685 1640 _____________O -1 35.90 -38.80 HU 65 12 5
1862 NA NA 09:00:00 TS 36.49 -38.73 1640 1600 _____________P -1 36.49 -38.73 HU 65 11 4
1862 NA NA 12:00:00 TS 37.00 -38.70 1600 1568 _____________O -1 37.00 -38.70 HU 65 9 4
1862 NA NA 15:00:00 TS 37.38 -38.67 1568 1544 _____________P -1 37.38 -38.67 HU 65 7 0
1862 NA NA 18:00:00 TS 37.70 -38.70 1544 1514 _____________O -1 37.70 -38.70 HU 65 7 354
1862 NA NA 21:00:00 TS 38.05 -38.77 1514 1471 _____________P -1 38.05 -38.77 HU 65 7 341
1862 NA NA 1862-09-10 00:00:00 TS 38.40 -39.00 1471 1417 _____________O -1 38.40 -39.00 HU 65 9 321
1862 NA NA 03:00:00 TS 38.75 -39.49 1409 1348 _____________P -1 38.75 -39.49 HU 65 11 309
1862 NA NA 06:00:00 TS 39.10 -40.10 1348 1288 _____________O -1 39.10 -40.10 HU 65 12 304
1862 NA NA 09:00:00 TS 39.44 -40.78 1282 1226 _____________P -1 39.44 -40.78 HU 65 11 309
1862 NA NA 12:00:00 TS 39.80 -41.20 1226 1203 _____________O -1 39.80 -41.20 HU 65 8 346
1862 NA NA 15:00:00 TS 40.23 -41.03 1209 1199 _____________P -1 40.23 -41.03 HU 65 10 27
1862 NA NA 18:00:00 TS 40.70 -40.60 1199 1185 _____________O -1 40.70 -40.60 HU 65 11 29
1862 NA NA 21:00:00 TS 41.20 -40.31 1185 1173 _____________P -1 41.20 -40.31 HU 62 11 24
1862 NA NA 1862-09-11 00:00:00 TS 41.70 -40.00 1174 1165 _____________O -1 41.70 -40.00 TS 60 11 26
1862 NA NA 03:00:00 TS 42.16 -39.70 1166 1166 _____________P -1 42.16 -39.70 TS 57 11 33
1862 NA NA 06:00:00 TS 42.60 -39.20 1179 1179 _____________O -1 42.60 -39.20 TS 55 13 49
1862 NA NA 09:00:00 TS 42.99 -38.38 1212 1212 _____________P -1 42.99 -38.38 TS 52 17 57
1862 NA NA 12:00:00 TS 43.50 -37.30 1265 1265 _____________O -1 43.50 -37.30 TS 50 21 52
1862 NA NA 15:00:00 TS 44.30 -36.05 1317 1317 _____________P -1 44.30 -36.05 TS 47 25 48
1862 NA NA 18:00:00 TS 45.20 -34.70 1388 1388 _____________O -1 45.20 -34.70 TS 45 25 48
1862 NA NA 21:00:00 TS 46.01 -33.40 1462 1462 _____________P -1 46.01 -33.40 TS 45 24 48
1862 NA NA 1862-09-12 00:00:00 ET 46.80 -32.10 1541 1532 _____________O -1 46.80 -32.10 EX 45 24 48
1862 NA NA 03:00:00 ET 47.60 -30.84 1526 1407 _____________P -1 47.60 -30.84 EX 42 24 48
1862 NA NA 06:00:00 ET 48.40 -29.50 1400 1272 _____________O -1 48.40 -29.50 EX 40 25 50
1862 NA NA 09:00:00 ET 49.21 -27.97 1265 1127 _____________P -1 49.21 -27.97 EX 37 26 53
1862 NA NA 12:00:00 ET 50.00 -26.30 1120 _____________O -1 50.00 -26.30 EX 35 27 54